sensor_id;sensor_type;location;lat;lon;timestamp;P1;durP1;ratioP1;P2;durP2;ratioP2
9763;SDS011;4921;43.214;27.936;2023-06-10T00:01:42;3.13;;;2.83;;
9763;SDS011;4921;43.214;27.936;2023-06-10T00:04:12;6.27;;;2.83;;
9763;SDS011;4921;43.214;27.936;2023-06-10T00:06:39;4.17;;;3.47;;
9763;SDS011;4921;43.214;27.936;2023-06-10T00:09:07;6.30;;;4.17;;
9763;SDS011;4921;43.214;27.936;2023-06-10T00:11:36;5.93;;;4.00;;
9763;SDS011;4921;43.214;27.936;2023-06-10T00:14:04;7.77;;;4.20;;
9763;SDS011;4921;43.214;27.936;2023-06-10T00:16:33;4.90;;;4.33;;
9763;SDS011;4921;43.214;27.936;2023-06-10T00:19:02;8.53;;;5.13;;
9763;SDS011;4921;43.214;27.936;2023-06-10T00:21:30;3.63;;;3.33;;
9763;SDS011;4921;43.214;27.936;2023-06-10T00:24:03;4.70;;;3.77;;
9763;SDS011;4921;43.214;27.936;2023-06-10T00:26:31;6.13;;;4.00;;
9763;SDS011;4921;43.214;27.936;2023-06-10T00:28:58;4.90;;;4.30;;
9763;SDS011;4921;43.214;27.936;2023-06-10T00:31:25;7.50;;;4.00;;
9763;SDS011;4921;43.214;27.936;2023-06-10T00:33:54;5.70;;;3.60;;
9763;SDS011;4921;43.214;27.936;2023-06-10T00:36:21;4.63;;;3.37;;
9763;SDS011;4921;43.214;27.936;2023-06-10T00:38:48;6.20;;;4.40;;
9763;SDS011;4921;43.214;27.936;2023-06-10T00:41:15;4.80;;;4.07;;
9763;SDS011;4921;43.214;27.936;2023-06-10T00:43:42;3.27;;;2.97;;
9763;SDS011;4921;43.214;27.936;2023-06-10T00:46:09;6.27;;;3.60;;
9763;SDS011;4921;43.214;27.936;2023-06-10T00:48:38;6.73;;;2.90;;
9763;SDS011;4921;43.214;27.936;2023-06-10T00:51:08;7.73;;;3.47;;
9763;SDS011;4921;43.214;27.936;2023-06-10T00:53:35;6.00;;;3.07;;
9763;SDS011;4921;43.214;27.936;2023-06-10T00:56:05;4.70;;;3.23;;
9763;SDS011;4921;43.214;27.936;2023-06-10T00:58:33;3.60;;;3.00;;
9763;SDS011;4921;43.214;27.936;2023-06-10T01:01:00;6.20;;;3.03;;
9763;SDS011;4921;43.214;27.936;2023-06-10T01:03:29;5.80;;;4.07;;
9763;SDS011;4921;43.214;27.936;2023-06-10T01:05:58;8.37;;;4.33;;
9763;SDS011;4921;43.214;27.936;2023-06-10T01:08:33;6.77;;;4.63;;
9763;SDS011;4921;43.214;27.936;2023-06-10T01:11:07;6.17;;;3.90;;
9763;SDS011;4921;43.214;27.936;2023-06-10T01:13:40;6.13;;;5.27;;
9763;SDS011;4921;43.214;27.936;2023-06-10T01:16:08;12.70;;;7.27;;
9763;SDS011;4921;43.214;27.936;2023-06-10T01:18:37;16.50;;;10.87;;
9763;SDS011;4921;43.214;27.936;2023-06-10T01:21:04;14.63;;;10.77;;
9763;SDS011;4921;43.214;27.936;2023-06-10T01:23:34;22.73;;;14.13;;
9763;SDS011;4921;43.214;27.936;2023-06-10T01:26:02;22.13;;;16.83;;
9763;SDS011;4921;43.214;27.936;2023-06-10T01:28:33;29.53;;;19.43;;
9763;SDS011;4921;43.214;27.936;2023-06-10T01:31:08;28.27;;;20.03;;
9763;SDS011;4921;43.214;27.936;2023-06-10T01:33:43;26.10;;;19.30;;
9763;SDS011;4921;43.214;27.936;2023-06-10T01:36:14;27.83;;;19.00;;
9763;SDS011;4921;43.214;27.936;2023-06-10T01:38:46;25.33;;;18.47;;
9763;SDS011;4921;43.214;27.936;2023-06-10T01:41:16;23.53;;;16.93;;
9763;SDS011;4921;43.214;27.936;2023-06-10T01:43:44;29.43;;;17.23;;
9763;SDS011;4921;43.214;27.936;2023-06-10T01:46:11;28.00;;;17.17;;
9763;SDS011;4921;43.214;27.936;2023-06-10T01:48:38;22.93;;;16.63;;
9763;SDS011;4921;43.214;27.936;2023-06-10T01:51:06;26.63;;;17.60;;
9763;SDS011;4921;43.214;27.936;2023-06-10T01:53:33;24.53;;;17.70;;
9763;SDS011;4921;43.214;27.936;2023-06-10T01:56:01;24.50;;;16.67;;
9763;SDS011;4921;43.214;27.936;2023-06-10T01:58:28;21.27;;;17.50;;
9763;SDS011;4921;43.214;27.936;2023-06-10T02:00:55;26.40;;;19.93;;
9763;SDS011;4921;43.214;27.936;2023-06-10T02:03:22;26.40;;;18.50;;
9763;SDS011;4921;43.214;27.936;2023-06-10T02:05:50;26.87;;;18.70;;
9763;SDS011;4921;43.214;27.936;2023-06-10T02:08:16;29.20;;;21.27;;
9763;SDS011;4921;43.214;27.936;2023-06-10T02:10:43;34.33;;;22.50;;
9763;SDS011;4921;43.214;27.936;2023-06-10T02:13:12;30.93;;;20.83;;
9763;SDS011;4921;43.214;27.936;2023-06-10T02:15:39;33.53;;;23.93;;
9763;SDS011;4921;43.214;27.936;2023-06-10T02:18:06;31.83;;;25.50;;
9763;SDS011;4921;43.214;27.936;2023-06-10T02:20:33;33.93;;;25.33;;
9763;SDS011;4921;43.214;27.936;2023-06-10T02:23:00;31.47;;;22.27;;
9763;SDS011;4921;43.214;27.936;2023-06-10T02:25:27;32.57;;;21.53;;
9763;SDS011;4921;43.214;27.936;2023-06-10T02:27:54;33.50;;;23.90;;
9763;SDS011;4921;43.214;27.936;2023-06-10T02:30:22;31.73;;;20.83;;
9763;SDS011;4921;43.214;27.936;2023-06-10T02:32:49;37.70;;;24.00;;
9763;SDS011;4921;43.214;27.936;2023-06-10T02:35:17;19.63;;;15.47;;
9763;SDS011;4921;43.214;27.936;2023-06-10T02:37:45;26.97;;;21.40;;
9763;SDS011;4921;43.214;27.936;2023-06-10T02:40:12;29.50;;;19.43;;
9763;SDS011;4921;43.214;27.936;2023-06-10T02:42:39;21.23;;;15.97;;
9763;SDS011;4921;43.214;27.936;2023-06-10T02:45:07;30.03;;;22.10;;
9763;SDS011;4921;43.214;27.936;2023-06-10T02:47:37;30.90;;;22.43;;
9763;SDS011;4921;43.214;27.936;2023-06-10T02:50:04;28.70;;;21.03;;
9763;SDS011;4921;43.214;27.936;2023-06-10T02:52:32;34.30;;;22.33;;
9763;SDS011;4921;43.214;27.936;2023-06-10T02:54:59;30.53;;;24.10;;
9763;SDS011;4921;43.214;27.936;2023-06-10T02:57:26;22.20;;;16.20;;
9763;SDS011;4921;43.214;27.936;2023-06-10T02:59:53;18.10;;;14.83;;
9763;SDS011;4921;43.214;27.936;2023-06-10T03:02:20;21.43;;;14.87;;
9763;SDS011;4921;43.214;27.936;2023-06-10T03:04:48;20.30;;;14.87;;
9763;SDS011;4921;43.214;27.936;2023-06-10T03:07:18;23.30;;;14.73;;
9763;SDS011;4921;43.214;27.936;2023-06-10T03:09:45;28.20;;;21.20;;
9763;SDS011;4921;43.214;27.936;2023-06-10T03:12:12;32.77;;;22.63;;
9763;SDS011;4921;43.214;27.936;2023-06-10T03:14:40;32.73;;;24.10;;
9763;SDS011;4921;43.214;27.936;2023-06-10T03:17:07;24.13;;;17.27;;
9763;SDS011;4921;43.214;27.936;2023-06-10T03:19:34;19.10;;;16.30;;
9763;SDS011;4921;43.214;27.936;2023-06-10T03:22:10;27.80;;;20.63;;
9763;SDS011;4921;43.214;27.936;2023-06-10T03:24:38;17.83;;;14.87;;
9763;SDS011;4921;43.214;27.936;2023-06-10T03:27:06;19.70;;;15.93;;
9763;SDS011;4921;43.214;27.936;2023-06-10T03:29:34;23.43;;;15.90;;
9763;SDS011;4921;43.214;27.936;2023-06-10T03:32:01;24.83;;;17.40;;
9763;SDS011;4921;43.214;27.936;2023-06-10T03:34:29;24.93;;;19.73;;
9763;SDS011;4921;43.214;27.936;2023-06-10T03:36:56;24.17;;;15.90;;
9763;SDS011;4921;43.214;27.936;2023-06-10T03:39:25;21.23;;;15.23;;
9763;SDS011;4921;43.214;27.936;2023-06-10T03:41:54;21.13;;;15.07;;
9763;SDS011;4921;43.214;27.936;2023-06-10T03:44:21;25.67;;;15.23;;
9763;SDS011;4921;43.214;27.936;2023-06-10T03:46:48;19.90;;;14.47;;
9763;SDS011;4921;43.214;27.936;2023-06-10T03:49:15;22.00;;;14.53;;
9763;SDS011;4921;43.214;27.936;2023-06-10T03:51:42;20.87;;;16.73;;
9763;SDS011;4921;43.214;27.936;2023-06-10T03:54:10;15.83;;;11.97;;
9763;SDS011;4921;43.214;27.936;2023-06-10T03:56:38;20.60;;;11.93;;
9763;SDS011;4921;43.214;27.936;2023-06-10T03:59:06;17.97;;;11.93;;
9763;SDS011;4921;43.214;27.936;2023-06-10T04:01:33;18.10;;;13.23;;
9763;SDS011;4921;43.214;27.936;2023-06-10T04:04:02;22.63;;;15.27;;
9763;SDS011;4921;43.214;27.936;2023-06-10T04:06:29;14.83;;;10.67;;
9763;SDS011;4921;43.214;27.936;2023-06-10T04:08:57;20.10;;;11.63;;
9763;SDS011;4921;43.214;27.936;2023-06-10T04:11:27;19.67;;;14.20;;
9763;SDS011;4921;43.214;27.936;2023-06-10T04:13:56;13.73;;;10.13;;
9763;SDS011;4921;43.214;27.936;2023-06-10T04:16:23;17.27;;;11.63;;
9763;SDS011;4921;43.214;27.936;2023-06-10T04:18:50;12.53;;;9.27;;
9763;SDS011;4921;43.214;27.936;2023-06-10T04:21:17;13.77;;;9.30;;
9763;SDS011;4921;43.214;27.936;2023-06-10T04:23:44;25.33;;;15.17;;
9763;SDS011;4921;43.214;27.936;2023-06-10T04:26:11;21.77;;;13.50;;
9763;SDS011;4921;43.214;27.936;2023-06-10T04:28:38;14.17;;;8.70;;
9763;SDS011;4921;43.214;27.936;2023-06-10T04:31:06;9.83;;;8.20;;
9763;SDS011;4921;43.214;27.936;2023-06-10T04:33:34;12.23;;;9.00;;
9763;SDS011;4921;43.214;27.936;2023-06-10T04:36:01;13.10;;;8.63;;
9763;SDS011;4921;43.214;27.936;2023-06-10T04:38:28;16.00;;;8.93;;
9763;SDS011;4921;43.214;27.936;2023-06-10T04:40:56;8.70;;;7.80;;
9763;SDS011;4921;43.214;27.936;2023-06-10T04:43:23;10.37;;;7.43;;
9763;SDS011;4921;43.214;27.936;2023-06-10T04:45:50;10.47;;;8.73;;
9763;SDS011;4921;43.214;27.936;2023-06-10T04:48:18;10.10;;;7.97;;
9763;SDS011;4921;43.214;27.936;2023-06-10T04:50:45;10.47;;;8.10;;
9763;SDS011;4921;43.214;27.936;2023-06-10T04:53:12;13.80;;;7.77;;
9763;SDS011;4921;43.214;27.936;2023-06-10T04:55:40;12.63;;;8.67;;
9763;SDS011;4921;43.214;27.936;2023-06-10T04:58:07;16.07;;;9.13;;
9763;SDS011;4921;43.214;27.936;2023-06-10T05:00:34;11.30;;;9.53;;
9763;SDS011;4921;43.214;27.936;2023-06-10T05:03:01;13.90;;;8.73;;
9763;SDS011;4921;43.214;27.936;2023-06-10T05:05:29;13.23;;;9.47;;
9763;SDS011;4921;43.214;27.936;2023-06-10T05:07:56;12.03;;;9.17;;
9763;SDS011;4921;43.214;27.936;2023-06-10T05:10:23;13.73;;;9.37;;
9763;SDS011;4921;43.214;27.936;2023-06-10T05:12:51;12.17;;;9.53;;
9763;SDS011;4921;43.214;27.936;2023-06-10T05:15:18;14.23;;;9.50;;
9763;SDS011;4921;43.214;27.936;2023-06-10T05:17:45;14.37;;;9.67;;
9763;SDS011;4921;43.214;27.936;2023-06-10T05:20:12;15.70;;;9.67;;
9763;SDS011;4921;43.214;27.936;2023-06-10T05:22:41;14.13;;;9.90;;
9763;SDS011;4921;43.214;27.936;2023-06-10T05:25:08;15.07;;;10.03;;
9763;SDS011;4921;43.214;27.936;2023-06-10T05:27:35;16.00;;;9.90;;
9763;SDS011;4921;43.214;27.936;2023-06-10T05:30:03;17.57;;;10.80;;
9763;SDS011;4921;43.214;27.936;2023-06-10T05:32:32;15.80;;;9.73;;
9763;SDS011;4921;43.214;27.936;2023-06-10T05:34:59;10.13;;;9.00;;
9763;SDS011;4921;43.214;27.936;2023-06-10T05:37:26;14.30;;;8.40;;
9763;SDS011;4921;43.214;27.936;2023-06-10T05:39:55;16.70;;;9.10;;
9763;SDS011;4921;43.214;27.936;2023-06-10T05:42:22;15.13;;;9.10;;
9763;SDS011;4921;43.214;27.936;2023-06-10T05:44:49;13.80;;;7.83;;
9763;SDS011;4921;43.214;27.936;2023-06-10T05:47:16;12.40;;;7.10;;
9763;SDS011;4921;43.214;27.936;2023-06-10T05:49:47;16.30;;;7.90;;
9763;SDS011;4921;43.214;27.936;2023-06-10T05:52:15;11.77;;;7.53;;
9763;SDS011;4921;43.214;27.936;2023-06-10T05:54:42;13.80;;;7.73;;
9763;SDS011;4921;43.214;27.936;2023-06-10T05:57:10;11.30;;;6.43;;
9763;SDS011;4921;43.214;27.936;2023-06-10T05:59:37;13.57;;;6.97;;
9763;SDS011;4921;43.214;27.936;2023-06-10T06:02:05;12.97;;;5.83;;
9763;SDS011;4921;43.214;27.936;2023-06-10T06:04:32;11.33;;;6.50;;
9763;SDS011;4921;43.214;27.936;2023-06-10T06:07:00;14.07;;;7.30;;
9763;SDS011;4921;43.214;27.936;2023-06-10T06:09:27;13.53;;;7.50;;
9763;SDS011;4921;43.214;27.936;2023-06-10T06:11:54;13.37;;;8.03;;
9763;SDS011;4921;43.214;27.936;2023-06-10T06:14:22;17.20;;;7.93;;
9763;SDS011;4921;43.214;27.936;2023-06-10T06:16:49;17.60;;;8.40;;
9763;SDS011;4921;43.214;27.936;2023-06-10T06:19:16;11.80;;;7.73;;
9763;SDS011;4921;43.214;27.936;2023-06-10T06:21:43;12.20;;;7.87;;
9763;SDS011;4921;43.214;27.936;2023-06-10T06:24:10;12.63;;;7.63;;
9763;SDS011;4921;43.214;27.936;2023-06-10T06:26:37;11.77;;;7.40;;
9763;SDS011;4921;43.214;27.936;2023-06-10T06:29:04;10.50;;;7.43;;
9763;SDS011;4921;43.214;27.936;2023-06-10T06:31:32;13.57;;;7.37;;
9763;SDS011;4921;43.214;27.936;2023-06-10T06:34:00;11.40;;;6.93;;
9763;SDS011;4921;43.214;27.936;2023-06-10T06:36:26;11.53;;;7.17;;
9763;SDS011;4921;43.214;27.936;2023-06-10T06:38:53;15.67;;;7.53;;
9763;SDS011;4921;43.214;27.936;2023-06-10T06:41:21;18.60;;;8.70;;
9763;SDS011;4921;43.214;27.936;2023-06-10T06:43:48;9.33;;;6.83;;
9763;SDS011;4921;43.214;27.936;2023-06-10T06:46:15;13.37;;;7.17;;
9763;SDS011;4921;43.214;27.936;2023-06-10T06:48:43;11.70;;;6.77;;
9763;SDS011;4921;43.214;27.936;2023-06-10T06:51:10;10.07;;;7.10;;
9763;SDS011;4921;43.214;27.936;2023-06-10T06:53:37;12.23;;;7.20;;
9763;SDS011;4921;43.214;27.936;2023-06-10T06:56:09;11.53;;;6.20;;
9763;SDS011;4921;43.214;27.936;2023-06-10T06:58:36;9.17;;;6.20;;
9763;SDS011;4921;43.214;27.936;2023-06-10T07:01:03;11.20;;;5.90;;
9763;SDS011;4921;43.214;27.936;2023-06-10T07:03:30;11.83;;;6.10;;
9763;SDS011;4921;43.214;27.936;2023-06-10T07:05:59;10.67;;;6.10;;
9763;SDS011;4921;43.214;27.936;2023-06-10T07:08:26;9.03;;;6.43;;
9763;SDS011;4921;43.214;27.936;2023-06-10T07:10:53;11.03;;;6.67;;
9763;SDS011;4921;43.214;27.936;2023-06-10T07:13:19;8.33;;;6.57;;
9763;SDS011;4921;43.214;27.936;2023-06-10T07:15:47;10.57;;;7.37;;
9763;SDS011;4921;43.214;27.936;2023-06-10T07:18:14;12.87;;;7.00;;
9763;SDS011;4921;43.214;27.936;2023-06-10T07:20:42;13.93;;;6.47;;
9763;SDS011;4921;43.214;27.936;2023-06-10T07:23:11;14.93;;;6.43;;
9763;SDS011;4921;43.214;27.936;2023-06-10T07:25:38;10.03;;;5.83;;
9763;SDS011;4921;43.214;27.936;2023-06-10T07:28:05;12.67;;;5.83;;
9763;SDS011;4921;43.214;27.936;2023-06-10T07:30:31;11.17;;;4.97;;
9763;SDS011;4921;43.214;27.936;2023-06-10T07:32:59;13.20;;;5.63;;
9763;SDS011;4921;43.214;27.936;2023-06-10T07:35:27;10.93;;;4.93;;
9763;SDS011;4921;43.214;27.936;2023-06-10T07:37:54;8.47;;;4.60;;
9763;SDS011;4921;43.214;27.936;2023-06-10T07:40:22;9.40;;;4.37;;
9763;SDS011;4921;43.214;27.936;2023-06-10T07:42:50;11.40;;;4.90;;
9763;SDS011;4921;43.214;27.936;2023-06-10T07:45:18;10.47;;;4.57;;
9763;SDS011;4921;43.214;27.936;2023-06-10T07:47:45;9.60;;;4.80;;
9763;SDS011;4921;43.214;27.936;2023-06-10T07:50:12;9.17;;;4.40;;
9763;SDS011;4921;43.214;27.936;2023-06-10T07:52:39;10.10;;;4.30;;
9763;SDS011;4921;43.214;27.936;2023-06-10T07:55:06;3.87;;;3.50;;
9763;SDS011;4921;43.214;27.936;2023-06-10T07:57:35;7.13;;;3.93;;
9763;SDS011;4921;43.214;27.936;2023-06-10T08:00:04;7.37;;;3.50;;
9763;SDS011;4921;43.214;27.936;2023-06-10T08:02:32;9.40;;;3.83;;
9763;SDS011;4921;43.214;27.936;2023-06-10T08:04:59;6.57;;;3.53;;
9763;SDS011;4921;43.214;27.936;2023-06-10T08:07:25;3.87;;;2.77;;
9763;SDS011;4921;43.214;27.936;2023-06-10T08:09:53;6.37;;;3.53;;
9763;SDS011;4921;43.214;27.936;2023-06-10T08:12:20;5.80;;;3.63;;
9763;SDS011;4921;43.214;27.936;2023-06-10T08:14:48;4.23;;;3.37;;
9763;SDS011;4921;43.214;27.936;2023-06-10T08:17:15;5.87;;;3.27;;
9763;SDS011;4921;43.214;27.936;2023-06-10T08:19:42;4.57;;;3.40;;
9763;SDS011;4921;43.214;27.936;2023-06-10T08:22:09;6.00;;;3.27;;
9763;SDS011;4921;43.214;27.936;2023-06-10T08:24:36;4.87;;;3.20;;
9763;SDS011;4921;43.214;27.936;2023-06-10T08:27:03;5.27;;;3.00;;
9763;SDS011;4921;43.214;27.936;2023-06-10T08:29:31;6.37;;;3.20;;
9763;SDS011;4921;43.214;27.936;2023-06-10T08:32:00;6.07;;;3.87;;
9763;SDS011;4921;43.214;27.936;2023-06-10T08:34:27;6.53;;;2.97;;
9763;SDS011;4921;43.214;27.936;2023-06-10T08:36:54;11.37;;;4.07;;
9763;SDS011;4921;43.214;27.936;2023-06-10T08:39:21;6.10;;;3.77;;
9763;SDS011;4921;43.214;27.936;2023-06-10T08:41:49;4.47;;;3.70;;
9763;SDS011;4921;43.214;27.936;2023-06-10T08:44:27;7.17;;;3.10;;
9763;SDS011;4921;43.214;27.936;2023-06-10T08:46:55;5.40;;;3.50;;
9763;SDS011;4921;43.214;27.936;2023-06-10T08:49:27;4.63;;;3.00;;
9763;SDS011;4921;43.214;27.936;2023-06-10T08:52:00;3.70;;;3.03;;
9763;SDS011;4921;43.214;27.936;2023-06-10T08:54:30;3.90;;;3.50;;
9763;SDS011;4921;43.214;27.936;2023-06-10T08:56:59;5.07;;;3.73;;
9763;SDS011;4921;43.214;27.936;2023-06-10T08:59:31;5.47;;;3.43;;
9763;SDS011;4921;43.214;27.936;2023-06-10T09:02:00;3.93;;;3.20;;
9763;SDS011;4921;43.214;27.936;2023-06-10T09:04:28;2.90;;;2.67;;
9763;SDS011;4921;43.214;27.936;2023-06-10T09:06:57;3.10;;;2.90;;
9763;SDS011;4921;43.214;27.936;2023-06-10T09:09:24;5.20;;;3.17;;
9763;SDS011;4921;43.214;27.936;2023-06-10T09:11:54;3.80;;;2.63;;
9763;SDS011;4921;43.214;27.936;2023-06-10T09:14:21;4.83;;;2.87;;
9763;SDS011;4921;43.214;27.936;2023-06-10T09:16:48;5.63;;;2.63;;
9763;SDS011;4921;43.214;27.936;2023-06-10T09:19:17;4.77;;;2.70;;
9763;SDS011;4921;43.214;27.936;2023-06-10T09:21:46;3.13;;;2.63;;
9763;SDS011;4921;43.214;27.936;2023-06-10T09:24:13;4.57;;;2.90;;
9763;SDS011;4921;43.214;27.936;2023-06-10T09:26:41;7.93;;;3.07;;
9763;SDS011;4921;43.214;27.936;2023-06-10T09:29:11;5.10;;;2.40;;
9763;SDS011;4921;43.214;27.936;2023-06-10T09:31:38;4.70;;;2.90;;
9763;SDS011;4921;43.214;27.936;2023-06-10T09:34:07;4.07;;;2.80;;
9763;SDS011;4921;43.214;27.936;2023-06-10T09:36:36;6.43;;;2.80;;
9763;SDS011;4921;43.214;27.936;2023-06-10T09:39:04;5.13;;;2.93;;
9763;SDS011;4921;43.214;27.936;2023-06-10T09:41:40;4.80;;;3.07;;
9763;SDS011;4921;43.214;27.936;2023-06-10T09:44:09;3.50;;;2.60;;
9763;SDS011;4921;43.214;27.936;2023-06-10T09:46:38;4.83;;;3.00;;
9763;SDS011;4921;43.214;27.936;2023-06-10T09:49:05;5.50;;;2.83;;
9763;SDS011;4921;43.214;27.936;2023-06-10T09:51:32;3.60;;;2.87;;
9763;SDS011;4921;43.214;27.936;2023-06-10T09:54:01;3.57;;;3.03;;
9763;SDS011;4921;43.214;27.936;2023-06-10T09:56:32;4.70;;;2.73;;
9763;SDS011;4921;43.214;27.936;2023-06-10T09:59:01;3.27;;;2.87;;
9763;SDS011;4921;43.214;27.936;2023-06-10T10:01:29;4.80;;;2.87;;
9763;SDS011;4921;43.214;27.936;2023-06-10T10:03:58;5.20;;;2.80;;
9763;SDS011;4921;43.214;27.936;2023-06-10T10:06:26;3.77;;;2.57;;
9763;SDS011;4921;43.214;27.936;2023-06-10T10:08:55;6.07;;;2.90;;
9763;SDS011;4921;43.214;27.936;2023-06-10T10:11:23;5.97;;;2.47;;
9763;SDS011;4921;43.214;27.936;2023-06-10T10:13:52;4.60;;;2.77;;
9763;SDS011;4921;43.214;27.936;2023-06-10T10:16:20;4.00;;;3.10;;
9763;SDS011;4921;43.214;27.936;2023-06-10T10:18:51;4.87;;;2.40;;
9763;SDS011;4921;43.214;27.936;2023-06-10T10:21:22;6.97;;;3.20;;
9763;SDS011;4921;43.214;27.936;2023-06-10T10:23:53;3.13;;;2.93;;
9763;SDS011;4921;43.214;27.936;2023-06-10T10:26:26;3.10;;;2.83;;
9763;SDS011;4921;43.214;27.936;2023-06-10T10:28:58;2.90;;;2.67;;
9763;SDS011;4921;43.214;27.936;2023-06-10T10:31:34;5.40;;;2.50;;
9763;SDS011;4921;43.214;27.936;2023-06-10T10:34:04;5.47;;;3.07;;
9763;SDS011;4921;43.214;27.936;2023-06-10T10:36:33;4.53;;;2.30;;
9763;SDS011;4921;43.214;27.936;2023-06-10T10:39:01;4.87;;;2.87;;
9763;SDS011;4921;43.214;27.936;2023-06-10T10:41:32;4.23;;;2.70;;
9763;SDS011;4921;43.214;27.936;2023-06-10T10:44:00;2.97;;;2.63;;
9763;SDS011;4921;43.214;27.936;2023-06-10T10:46:30;3.73;;;3.30;;
9763;SDS011;4921;43.214;27.936;2023-06-10T10:49:08;8.53;;;4.70;;
9763;SDS011;4921;43.214;27.936;2023-06-10T10:51:36;3.03;;;2.73;;
9763;SDS011;4921;43.214;27.936;2023-06-10T10:54:10;9.27;;;3.07;;
9763;SDS011;4921;43.214;27.936;2023-06-10T10:56:39;7.63;;;2.80;;
9763;SDS011;4921;43.214;27.936;2023-06-10T10:59:06;3.10;;;2.80;;
9763;SDS011;4921;43.214;27.936;2023-06-10T11:01:40;6.43;;;2.77;;
9763;SDS011;4921;43.214;27.936;2023-06-10T11:04:11;3.47;;;2.67;;
9763;SDS011;4921;43.214;27.936;2023-06-10T11:06:39;5.10;;;2.53;;
9763;SDS011;4921;43.214;27.936;2023-06-10T11:11:54;4.43;;;4.03;;
9763;SDS011;4921;43.214;27.936;2023-06-10T11:14:26;4.80;;;3.27;;
9763;SDS011;4921;43.214;27.936;2023-06-10T11:16:56;4.73;;;2.70;;
9763;SDS011;4921;43.214;27.936;2023-06-10T11:19:33;7.47;;;2.93;;
9763;SDS011;4921;43.214;27.936;2023-06-10T11:22:01;8.83;;;2.80;;
9763;SDS011;4921;43.214;27.936;2023-06-10T11:24:28;3.70;;;2.70;;
9763;SDS011;4921;43.214;27.936;2023-06-10T11:29:56;9.43;;;3.47;;
9763;SDS011;4921;43.214;27.936;2023-06-10T11:32:24;3.20;;;2.80;;
9763;SDS011;4921;43.214;27.936;2023-06-10T11:34:57;4.80;;;2.30;;
9763;SDS011;4921;43.214;27.936;2023-06-10T11:37:24;5.30;;;2.97;;
9763;SDS011;4921;43.214;27.936;2023-06-10T11:39:51;3.93;;;2.80;;
9763;SDS011;4921;43.214;27.936;2023-06-10T11:42:21;4.80;;;2.77;;
9763;SDS011;4921;43.214;27.936;2023-06-10T11:44:49;2.80;;;2.37;;
9763;SDS011;4921;43.214;27.936;2023-06-10T11:47:16;4.43;;;2.50;;
9763;SDS011;4921;43.214;27.936;2023-06-10T11:49:43;4.10;;;2.57;;
9763;SDS011;4921;43.214;27.936;2023-06-10T11:52:11;4.30;;;2.70;;
9763;SDS011;4921;43.214;27.936;2023-06-10T11:54:38;3.37;;;2.50;;
9763;SDS011;4921;43.214;27.936;2023-06-10T11:57:05;4.20;;;2.53;;
9763;SDS011;4921;43.214;27.936;2023-06-10T11:59:35;4.00;;;3.00;;
9763;SDS011;4921;43.214;27.936;2023-06-10T12:02:03;5.17;;;3.00;;
9763;SDS011;4921;43.214;27.936;2023-06-10T12:04:30;5.07;;;2.90;;
9763;SDS011;4921;43.214;27.936;2023-06-10T12:06:57;4.83;;;2.80;;
9763;SDS011;4921;43.214;27.936;2023-06-10T12:09:25;3.60;;;2.83;;
9763;SDS011;4921;43.214;27.936;2023-06-10T12:11:54;3.87;;;2.87;;
9763;SDS011;4921;43.214;27.936;2023-06-10T12:17:21;7.23;;;3.20;;
9763;SDS011;4921;43.214;27.936;2023-06-10T12:19:49;4.63;;;3.00;;
9763;SDS011;4921;43.214;27.936;2023-06-10T12:22:16;5.40;;;2.97;;
9763;SDS011;4921;43.214;27.936;2023-06-10T12:24:44;4.30;;;2.90;;
9763;SDS011;4921;43.214;27.936;2023-06-10T12:27:12;3.83;;;2.93;;
9763;SDS011;4921;43.214;27.936;2023-06-10T12:29:39;7.23;;;2.80;;
9763;SDS011;4921;43.214;27.936;2023-06-10T12:32:18;4.87;;;3.10;;
9763;SDS011;4921;43.214;27.936;2023-06-10T12:34:48;4.97;;;3.07;;
9763;SDS011;4921;43.214;27.936;2023-06-10T12:37:15;8.27;;;3.10;;
9763;SDS011;4921;43.214;27.936;2023-06-10T12:39:42;3.67;;;3.17;;
9763;SDS011;4921;43.214;27.936;2023-06-10T12:42:18;5.90;;;3.00;;
9763;SDS011;4921;43.214;27.936;2023-06-10T12:44:52;5.63;;;3.03;;
9763;SDS011;4921;43.214;27.936;2023-06-10T12:47:21;4.63;;;2.77;;
9763;SDS011;4921;43.214;27.936;2023-06-10T12:49:56;4.63;;;2.90;;
9763;SDS011;4921;43.214;27.936;2023-06-10T12:52:24;4.97;;;3.60;;
9763;SDS011;4921;43.214;27.936;2023-06-10T12:54:51;5.33;;;2.87;;
9763;SDS011;4921;43.214;27.936;2023-06-10T12:57:18;3.93;;;3.00;;
9763;SDS011;4921;43.214;27.936;2023-06-10T12:59:45;3.90;;;3.00;;
9763;SDS011;4921;43.214;27.936;2023-06-10T13:02:17;7.97;;;3.13;;
9763;SDS011;4921;43.214;27.936;2023-06-10T13:04:47;3.83;;;3.13;;
9763;SDS011;4921;43.214;27.936;2023-06-10T13:07:14;7.30;;;3.43;;
9763;SDS011;4921;43.214;27.936;2023-06-10T13:09:41;15.60;;;3.77;;
9763;SDS011;4921;43.214;27.936;2023-06-10T13:12:08;5.83;;;3.43;;
9763;SDS011;4921;43.214;27.936;2023-06-10T13:14:37;8.20;;;3.70;;
9763;SDS011;4921;43.214;27.936;2023-06-10T13:17:04;4.73;;;3.07;;
9763;SDS011;4921;43.214;27.936;2023-06-10T13:19:32;7.23;;;3.60;;
9763;SDS011;4921;43.214;27.936;2023-06-10T13:22:01;4.30;;;3.27;;
9763;SDS011;4921;43.214;27.936;2023-06-10T13:24:28;5.93;;;2.90;;
9763;SDS011;4921;43.214;27.936;2023-06-10T13:26:55;6.07;;;3.23;;
9763;SDS011;4921;43.214;27.936;2023-06-10T13:29:22;4.83;;;2.87;;
9763;SDS011;4921;43.214;27.936;2023-06-10T13:31:49;4.57;;;2.53;;
9763;SDS011;4921;43.214;27.936;2023-06-10T13:34:16;3.97;;;2.90;;
9763;SDS011;4921;43.214;27.936;2023-06-10T13:36:43;5.03;;;2.80;;
9763;SDS011;4921;43.214;27.936;2023-06-10T13:39:12;8.80;;;2.87;;
9763;SDS011;4921;43.214;27.936;2023-06-10T13:41:40;6.50;;;2.83;;
9763;SDS011;4921;43.214;27.936;2023-06-10T13:44:07;5.77;;;3.07;;
9763;SDS011;4921;43.214;27.936;2023-06-10T13:46:34;3.60;;;2.97;;
9763;SDS011;4921;43.214;27.936;2023-06-10T13:49:01;4.17;;;2.70;;
9763;SDS011;4921;43.214;27.936;2023-06-10T13:51:28;3.83;;;2.50;;
9763;SDS011;4921;43.214;27.936;2023-06-10T13:53:55;5.07;;;2.50;;
9763;SDS011;4921;43.214;27.936;2023-06-10T13:56:23;4.93;;;2.60;;
9763;SDS011;4921;43.214;27.936;2023-06-10T13:58:50;2.87;;;2.60;;
9763;SDS011;4921;43.214;27.936;2023-06-10T14:01:17;5.83;;;2.70;;
9763;SDS011;4921;43.214;27.936;2023-06-10T14:03:44;5.23;;;2.60;;
9763;SDS011;4921;43.214;27.936;2023-06-10T14:06:11;3.47;;;2.80;;
9763;SDS011;4921;43.214;27.936;2023-06-10T14:08:43;9.50;;;3.03;;
9763;SDS011;4921;43.214;27.936;2023-06-10T14:11:10;5.93;;;3.20;;
9763;SDS011;4921;43.214;27.936;2023-06-10T14:13:38;5.77;;;2.70;;
9763;SDS011;4921;43.214;27.936;2023-06-10T14:16:05;5.27;;;2.47;;
9763;SDS011;4921;43.214;27.936;2023-06-10T14:18:33;3.97;;;2.67;;
9763;SDS011;4921;43.214;27.936;2023-06-10T14:21:00;6.70;;;3.00;;
9763;SDS011;4921;43.214;27.936;2023-06-10T14:23:26;4.73;;;2.80;;
9763;SDS011;4921;43.214;27.936;2023-06-10T14:25:53;4.33;;;3.17;;
9763;SDS011;4921;43.214;27.936;2023-06-10T14:28:20;4.80;;;3.00;;
9763;SDS011;4921;43.214;27.936;2023-06-10T14:30:50;11.47;;;3.67;;
9763;SDS011;4921;43.214;27.936;2023-06-10T14:33:18;9.30;;;3.27;;
9763;SDS011;4921;43.214;27.936;2023-06-10T14:35:45;4.93;;;3.03;;
9763;SDS011;4921;43.214;27.936;2023-06-10T14:38:12;4.43;;;2.70;;
9763;SDS011;4921;43.214;27.936;2023-06-10T14:40:38;4.87;;;2.67;;
9763;SDS011;4921;43.214;27.936;2023-06-10T14:43:05;5.73;;;2.70;;
9763;SDS011;4921;43.214;27.936;2023-06-10T14:45:35;5.50;;;2.87;;
9763;SDS011;4921;43.214;27.936;2023-06-10T14:48:04;2.63;;;2.43;;
9763;SDS011;4921;43.214;27.936;2023-06-10T14:50:31;5.43;;;2.80;;
9763;SDS011;4921;43.214;27.936;2023-06-10T14:52:58;3.93;;;2.50;;
9763;SDS011;4921;43.214;27.936;2023-06-10T14:55:25;3.97;;;2.67;;
9763;SDS011;4921;43.214;27.936;2023-06-10T14:57:52;5.50;;;2.80;;
9763;SDS011;4921;43.214;27.936;2023-06-10T15:00:20;4.57;;;2.77;;
9763;SDS011;4921;43.214;27.936;2023-06-10T15:02:49;3.00;;;2.70;;
9763;SDS011;4921;43.214;27.936;2023-06-10T15:05:18;4.93;;;2.50;;
9763;SDS011;4921;43.214;27.936;2023-06-10T15:07:45;4.47;;;2.40;;